Time;durP1;ratioP1;P1;durP2;ratioP2;P2;SDS_P1;SDS_P2;PMS_P1;PMS_P2;Temp;Humidity;BMP_temperature;BMP_pressure;BME280_temperature;BME280_humidity;BME280_pressure;Samples;Min_cycle;Max_cycle;Signal;HPM_P1;HPM_P2
2022/04/12 00:00:05;;;;;;;12.88;7.97;;;;;;;4.99;69.54;101255.88;4930021;29;20047;-82
2022/04/12 00:02:31;;;;;;;14.85;8.60;;;;;;;4.86;70.00;101253.22;4923171;29;20102;-85
2022/04/12 00:04:59;;;;;;;14.85;9.25;;;;;;;4.81;70.01;101250.88;4917612;29;20047;-82
2022/04/12 00:07:25;;;;;;;12.75;8.95;;;;;;;4.71;70.40;101255.19;4906200;29;20099;-81
2022/04/12 00:09:54;;;;;;;13.90;8.93;;;;;;;4.70;70.66;101253.47;4947334;29;20523;-82
2022/04/12 00:12:21;;;;;;;15.50;9.02;;;;;;;4.63;70.68;101253.03;4944122;29;20087;-82
2022/04/12 00:14:46;;;;;;;13.70;8.13;;;;;;;4.62;70.55;101242.50;4946155;29;20039;-81
2022/04/12 00:19:56;;;;;;;11.05;6.78;;;;;;;4.64;70.68;101248.59;4947247;29;20094;-81
2022/04/12 00:22:22;;;;;;;12.03;7.53;;;;;;;4.64;70.52;101249.44;4941120;29;20047;-82
2022/04/12 00:24:48;;;;;;;10.80;6.82;;;;;;;4.69;70.34;101246.44;4945445;29;20643;-82
2022/04/12 00:27:15;;;;;;;9.35;6.75;;;;;;;4.73;70.48;101245.28;4945360;29;20114;-82
2022/04/12 00:29:40;;;;;;;10.55;6.50;;;;;;;4.67;70.49;101231.53;4917522;29;20531;-82
2022/04/12 00:32:06;;;;;;;9.00;6.10;;;;;;;4.81;70.33;101234.91;4919456;29;20027;-82
2022/04/12 00:34:32;;;;;;;;;;;;;;;4.92;69.97;101235.97;4947858;28;20407;-81
2022/04/12 00:37:08;;;;;;;;;;;;;;;4.76;70.46;101241.53;4916661;29;19964;-81
2022/04/12 00:39:34;;;;;;;7.63;5.13;;;;;;;4.80;70.20;101240.34;4939065;29;19938;-81
2022/04/12 00:42:01;;;;;;;7.97;5.40;;;;;;;4.85;69.88;101248.88;4915111;29;20043;-83
2022/04/12 00:44:28;;;;;;;8.25;5.88;;;;;;;4.75;70.28;101242.47;4921603;29;20137;-82
2022/04/12 00:46:54;;;;;;;12.48;7.40;;;;;;;4.71;70.66;101241.03;4943737;29;20531;-81
2022/04/12 00:49:25;;;;;;;13.57;8.48;;;;;;;4.68;70.71;101234.06;4930411;29;20048;-82
2022/04/12 00:51:51;;;;;;;16.92;9.77;;;;;;;4.71;70.86;101238.34;4928541;29;20047;-83
2022/04/12 00:54:19;;;;;;;17.13;9.73;;;;;;;4.77;70.84;101238.75;4926819;29;20126;-82
2022/04/12 00:56:48;;;;;;;17.58;10.40;;;;;;;4.74;70.99;101225.66;4946130;29;20071;-83
2022/04/12 00:59:23;;;;;;;19.75;11.32;;;;;;;4.84;71.01;101245.34;4922509;29;20039;-82
2022/04/12 01:01:50;;;;;;;18.85;12.38;;;;;;;4.80;70.95;101248.31;4942994;29;20489;-82
2022/04/12 01:04:18;;;;;;;21.77;12.45;;;;;;;4.79;71.18;101230.66;4901648;29;20135;-82
2022/04/12 01:06:43;;;;;;;21.05;13.55;;;;;;;4.75;71.12;101246.00;4924688;29;20194;-81
2022/04/12 01:09:12;;;;;;;25.08;13.90;;;;;;;4.91;71.08;101244.91;4934263;29;20086;-83
2022/04/12 01:11:47;;;;;;;24.02;13.27;;;;;;;4.77;70.96;101236.06;4917873;29;20211;-83
2022/04/12 01:14:15;;;;;;;20.65;12.77;;;;;;;4.83;70.50;101222.31;4922532;29;20083;-83
2022/04/12 01:16:41;;;;;;;17.65;11.60;;;;;;;4.75;70.65;101231.81;4936014;29;20060;-84
2022/04/12 01:19:11;;;;;;;19.15;11.95;;;;;;;4.74;70.28;101224.81;4941220;29;20051;-82
2022/04/12 01:21:51;;;;;;;21.05;12.25;;;;;;;4.87;70.56;101244.28;4922910;29;20126;-83
2022/04/12 01:24:16;;;;;;;19.10;11.75;;;;;;;4.83;70.61;101238.31;4918416;29;20122;-82
2022/04/12 01:26:46;;;;;;;19.70;10.77;;;;;;;4.91;70.08;101243.09;4936550;29;20055;-81
2022/04/12 01:29:17;;;;;;;15.27;9.00;;;;;;;4.85;70.19;101241.72;4947442;29;20035;-84
2022/04/12 01:31:45;;;;;;;15.40;8.85;;;;;;;4.67;70.68;101242.19;4934274;29;20453;-84
2022/04/12 01:34:11;;;;;;;15.00;8.70;;;;;;;4.53;71.10;101241.34;4921422;29;20043;-83
2022/04/12 01:36:36;;;;;;;15.82;8.82;;;;;;;4.59;71.26;101251.56;4906194;29;20081;-83
2022/04/12 01:39:05;;;;;;;13.77;8.50;;;;;;;4.55;70.83;101249.22;4938162;29;20051;-83
2022/04/12 01:41:31;;;;;;;10.88;7.72;;;;;;;4.66;70.54;101254.66;4919991;29;20043;-82
2022/04/12 01:43:57;;;;;;;13.23;7.82;;;;;;;4.52;70.61;101244.09;4931949;29;20042;-82
2022/04/12 01:46:23;;;;;;;14.37;8.13;;;;;;;4.58;70.76;101249.84;4938235;29;20043;-83
2022/04/12 01:48:49;;;;;;;13.07;7.97;;;;;;;4.50;70.65;101230.91;4945218;29;20516;-82
2022/04/12 01:51:17;;;;;;;14.25;8.13;;;;;;;4.50;70.85;101230.06;4934920;29;20082;-82
2022/04/12 01:53:44;;;;;;;15.63;7.30;;;;;;;4.45;71.57;101254.34;4906248;29;20123;-83
2022/04/12 01:56:09;;;;;;;14.77;7.85;;;;;;;4.43;71.40;101254.44;4933350;29;20035;-82
2022/04/12 01:58:36;;;;;;;15.57;8.75;;;;;;;4.22;72.18;101237.31;4923734;29;20087;-82
2022/04/12 02:01:02;;;;;;;;;;;;;;;4.28;72.53;101257.31;4931904;29;20051;-82
2022/04/12 02:03:27;;;;;;;;;;;;;;;4.22;72.82;101258.59;4927541;29;19937;-84
2022/04/12 02:05:54;;;;;;;18.65;8.65;;;;;;;4.29;72.66;101259.03;4943239;29;19922;-82
2022/04/12 02:08:20;;;;;;;19.02;9.38;;;;;;;4.29;72.86;101257.22;4916592;29;20496;-84
2022/04/12 02:10:46;;;;;;;16.38;10.07;;;;;;;4.28;72.68;101262.63;4905370;29;20123;-82
2022/04/12 02:13:11;;;;;;;13.60;9.60;;;;;;;4.29;73.00;101262.53;4928688;29;20046;-83
2022/04/12 02:15:38;;;;;;;14.57;9.30;;;;;;;4.31;72.62;101263.28;4948803;29;20516;-82
2022/04/12 02:18:04;;;;;;;14.85;9.55;;;;;;;4.44;71.96;101264.13;4949933;29;20062;-82
2022/04/12 02:20:30;;;;;;;15.38;9.63;;;;;;;4.38;71.97;101256.59;4919103;29;20044;-83
2022/04/12 02:22:57;;;;;;;19.25;10.32;;;;;;;4.50;71.57;101270.00;4912878;29;20448;-82
2022/04/12 02:25:23;;;;;;;16.17;9.55;;;;;;;4.54;71.33;101261.69;4938472;29;20055;-82
2022/04/12 02:27:48;;;;;;;14.50;9.53;;;;;;;4.57;71.34;101268.63;4917589;29;20492;-83
2022/04/12 02:30:14;;;;;;;16.37;9.87;;;;;;;4.57;71.14;101268.63;4948132;29;20042;-82
2022/04/12 02:32:40;;;;;;;13.87;9.37;;;;;;;4.53;71.23;101261.78;4948136;29;20114;-81
2022/04/12 02:35:07;;;;;;;16.17;9.80;;;;;;;4.49;71.04;101260.28;4911535;29;20040;-84
2022/04/12 02:37:34;;;;;;;14.07;9.02;;;;;;;4.33;71.37;101236.53;4920738;29;20102;-82
2022/04/12 02:39:59;;;;;;;15.85;9.57;;;;;;;4.51;71.27;101266.38;4924065;29;20067;-81
2022/04/12 02:42:26;;;;;;;17.23;10.23;;;;;;;4.27;71.95;101255.63;4897649;29;20098;-82
2022/04/12 02:44:52;;;;;;;20.52;11.02;;;;;;;4.27;72.15;101268.94;4948054;29;20298;-82
2022/04/12 02:47:19;;;;;;;21.80;10.63;;;;;;;4.21;72.19;101254.22;4945946;29;20409;-83
2022/04/12 02:49:44;;;;;;;18.60;11.63;;;;;;;4.12;72.66;101270.81;4927679;29;20126;-83
2022/04/12 02:52:12;;;;;;;19.37;11.13;;;;;;;4.24;72.44;101272.66;4929953;29;20146;-82
2022/04/12 02:54:45;;;;;;;20.08;11.95;;;;;;;4.18;72.60;101275.72;4924361;29;20055;-82
2022/04/12 02:57:10;;;;;;;24.17;12.23;;;;;;;4.10;72.90;101268.28;4942276;29;20039;-83
2022/04/12 02:59:36;;;;;;;19.60;11.80;;;;;;;4.13;73.22;101277.84;4946686;29;20067;-82
2022/04/12 03:02:01;;;;;;;17.87;11.63;;;;;;;4.07;73.10;101275.59;4950305;29;20644;-81
2022/04/12 03:04:29;;;;;;;19.93;10.87;;;;;;;4.20;72.88;101277.31;4919004;29;20031;-82
2022/04/12 03:06:56;;;;;;;21.88;11.23;;;;;;;4.27;72.55;101269.78;4927251;29;20263;-83
2022/04/12 03:09:24;;;;;;;21.00;12.63;;;;;;;4.35;72.04;101262.09;4917472;29;20043;-81
2022/04/12 03:11:52;;;;;;;23.27;12.85;;;;;;;4.38;72.18;101269.91;4907941;29;20400;-81
2022/04/12 03:14:20;;;;;;;22.35;12.73;;;;;;;4.27;72.23;101252.97;4921435;29;20067;-83
2022/04/12 03:16:45;;;;;;;28.20;13.15;;;;;;;4.23;72.69;101266.47;4946883;29;20060;-84
2022/04/12 03:19:11;;;;;;;26.13;12.73;;;;;;;4.34;72.34;101264.88;4920915;29;20051;-82
2022/04/12 03:21:42;;;;;;;23.17;12.90;;;;;;;4.17;72.69;101258.06;4926770;29;20298;-83
2022/04/12 03:24:10;;;;;;;22.33;12.55;;;;;;;4.27;72.90;101276.91;4923248;29;20120;-82
2022/04/12 03:26:39;;;;;;;19.65;11.95;;;;;;;4.26;73.05;101280.53;4916640;29;20086;-86
2022/04/12 03:29:04;;;;;;;27.40;12.23;;;;;;;4.15;73.49;101291.91;4944083;29;20043;-82
2022/04/12 03:31:30;;;;;;;18.80;12.27;;;;;;;4.02;73.81;101275.91;4936136;29;20035;-83
2022/04/12 03:33:55;;;;;;;23.17;12.50;;;;;;;4.09;74.18;101294.97;4926303;29;20046;-82
2022/04/12 03:36:21;;;;;;;21.50;11.93;;;;;;;4.05;74.46;101290.81;4949144;29;20488;-82
2022/04/12 03:38:49;;;;;;;22.53;12.03;;;;;;;3.96;74.76;101279.00;4906666;29;20051;-82
2022/04/12 03:41:26;;;;;;;23.85;12.10;;;;;;;4.09;74.48;101295.81;4924971;29;20319;-83
2022/04/12 03:43:52;;;;;;;20.48;11.85;;;;;;;4.04;74.67;101297.94;4921330;29;20554;-83
2022/04/12 03:46:18;;;;;;;24.67;12.80;;;;;;;3.99;74.88;101292.94;4909206;29;20051;-83
2022/04/12 03:48:44;;;;;;;23.27;12.02;;;;;;;4.17;74.56;101308.63;4921412;29;20097;-82
2022/04/12 03:51:10;;;;;;;27.23;13.02;;;;;;;4.04;74.52;101289.97;4935470;29;20094;-82
2022/04/12 03:53:37;;;;;;;23.60;12.52;;;;;;;4.28;73.91;101299.91;4930561;29;20065;-82
2022/04/12 03:56:24;;;;;;;19.65;11.45;;;;;;;4.40;73.59;101299.94;4913838;29;20040;-83
2022/04/12 03:58:53;;;;;;;19.63;12.18;;;;;;;4.43;73.37;101317.50;4927564;29;20043;-82
2022/04/12 04:01:19;;;;;;;20.45;11.48;;;;;;;4.45;73.31;101312.94;4898082;29;20047;-83
2022/04/12 04:03:45;;;;;;;21.75;12.70;;;;;;;4.57;72.50;101306.75;4938032;29;20047;-82
2022/04/12 04:06:14;;;;;;;22.65;12.10;;;;;;;4.65;71.94;101306.22;4920784;29;20047;-81
2022/04/12 04:08:39;;;;;;;26.05;11.38;;;;;;;4.69;71.79;101315.69;4917192;29;20043;-82
2022/04/12 04:11:06;;;;;;;22.13;12.13;;;;;;;4.76;71.52;101310.81;4936972;29;20039;-82
2022/04/12 04:13:36;;;;;;;20.00;11.32;;;;;;;4.80;71.25;101323.78;4939881;29;20111;-83
2022/04/12 04:16:04;;;;;;;24.17;10.90;;;;;;;4.89;70.60;101316.09;4908925;29;20075;-82
2022/04/12 04:18:33;;;;;;;17.00;9.77;;;;;;;5.21;69.35;101317.31;4924892;29;20043;-83
2022/04/12 04:21:01;;;;;;;19.80;10.90;;;;;;;5.32;69.25;101331.72;4942347;29;20059;-85
2022/04/12 04:23:27;;;;;;;18.02;10.52;;;;;;;5.32;68.44;101323.72;4937450;29;20062;-81
2022/04/12 04:25:54;;;;;;;15.35;9.75;;;;;;;5.43;68.10;101331.78;4941627;29;20038;-85
2022/04/12 04:28:22;;;;;;;18.92;10.32;;;;;;;5.40;67.49;101316.00;4903330;29;20531;-83
2022/04/12 04:30:50;;;;;;;21.35;10.35;;;;;;;5.28;68.01;101315.91;4904192;29;21765;-84
2022/04/12 04:33:19;;;;;;;24.25;10.35;;;;;;;5.37;68.10;101335.75;4918874;29;20487;-82
2022/04/12 04:35:49;;;;;;;19.00;9.10;;;;;;;5.32;68.00;101340.56;4929393;29;20032;-86
2022/04/12 04:38:15;;;;;;;16.95;10.27;;;;;;;5.33;67.95;101346.75;4922458;29;20047;-82
2022/04/12 04:40:49;;;;;;;19.73;9.73;;;;;;;5.36;68.28;101334.06;4902557;29;20485;-83
2022/04/12 04:43:17;;;;;;;22.80;10.20;;;;;;;5.65;67.97;101347.94;4949251;29;20094;-80
2022/04/12 04:45:45;;;;;;;19.83;10.45;;;;;;;5.59;67.42;101350.19;4926789;29;20127;-82
2022/04/12 04:48:13;;;;;;;19.15;10.85;;;;;;;5.69;67.40;101357.41;4938512;29;20042;-80
2022/04/12 04:50:39;;;;;;;19.30;10.63;;;;;;;5.63;67.33;101349.84;4895827;29;21140;-81
2022/04/12 04:53:07;;;;;;;24.23;10.15;;;;;;;5.93;66.43;101362.75;4941746;29;20043;-81
2022/04/12 04:55:37;;;;;;;16.55;9.77;;;;;;;6.06;66.05;101357.41;4926738;29;20039;-82
2022/04/12 04:58:06;;;;;;;20.25;9.73;;;;;;;6.18;65.17;101360.09;4915179;29;20019;-84
2022/04/12 05:00:34;;;;;;;19.88;10.15;;;;;;;6.04;65.47;101354.00;4937908;29;20071;-83
2022/04/12 05:03:00;;;;;;;20.10;10.10;;;;;;;6.36;64.63;101372.06;4930942;29;20024;-82
2022/04/12 05:05:30;;;;;;;21.13;10.38;;;;;;;6.58;63.83;101373.09;4919419;29;20032;-84
2022/04/12 05:08:02;;;;;;;18.75;10.38;;;;;;;6.54;63.71;101365.31;4913426;29;20126;-83
2022/04/12 05:10:29;;;;;;;19.70;8.98;;;;;;;6.64;63.30;101373.47;4953109;29;20098;-83
2022/04/12 05:12:55;;;;;;;;;;;;;;;7.11;61.90;101384.13;4932820;29;20495;-85
2022/04/12 05:15:21;;;;;;;16.52;9.38;;;;;;;8.58;57.33;101373.94;4951426;29;20115;-84
2022/04/12 05:17:53;;;;;;;15.57;9.13;;;;;;;7.99;58.83;101365.38;4932615;29;20544;-84
2022/04/12 05:20:24;;;;;;;15.20;9.23;;;;;;;10.57;51.92;101350.72;4932677;29;20038;-84
2022/04/12 05:22:49;;;;;;;18.17;9.30;;;;;;;12.78;46.42;101375.81;4916619;29;20059;-84
2022/04/12 05:25:15;;;;;;;18.08;8.82;;;;;;;13.63;43.02;101363.31;4932477;29;20036;-84
2022/04/12 05:27:43;;;;;;;17.13;8.98;;;;;;;14.21;41.21;101368.81;4947905;29;20047;-84
2022/04/12 05:30:10;;;;;;;14.82;8.75;;;;;;;15.45;37.96;101367.66;4916980;29;20601;-84
2022/04/12 05:32:39;;;;;;;13.05;7.88;;;;;;;16.26;36.59;101369.09;4933486;29;20055;-85
2022/04/12 05:35:07;;;;;;;22.38;7.82;;;;;;;16.89;35.33;101364.31;4949706;29;20109;-83
2022/04/12 05:37:44;;;;;;;16.65;7.47;;;;;;;17.67;33.92;101368.31;4932168;29;20071;-84
2022/04/12 05:40:12;;;;;;;17.13;8.32;;;;;;;19.13;31.64;101352.53;4930428;29;20043;-84
2022/04/12 05:42:38;;;;;;;20.88;8.23;;;;;;;20.53;29.20;101346.66;4930559;29;20074;-84
2022/04/12 05:45:05;;;;;;;;;;;;;;;22.27;27.49;101367.00;4932073;29;20445;-86
2022/04/12 05:47:43;;;;;;;17.63;8.75;;;;;;;22.54;26.69;101362.16;4945410;29;19922;-87
2022/04/12 05:50:13;;;;;;;15.00;7.60;;;;;;;23.07;25.40;101367.19;4937162;29;20035;-84
2022/04/12 05:52:44;;;;;;;13.25;7.53;;;;;;;22.48;25.41;101358.41;4921363;28;20039;-84
2022/04/12 05:55:15;;;;;;;15.40;8.70;;;;;;;22.53;25.53;101355.84;4922492;29;20089;-83
2022/04/12 05:57:55;;;;;;;14.07;8.50;;;;;;;23.22;24.49;101342.09;4933921;29;20040;-84
2022/04/12 06:00:27;;;;;;;17.17;8.50;;;;;;;23.04;25.02;101355.81;4933025;29;20031;-86
2022/04/12 06:02:59;;;;;;;14.00;7.20;;;;;;;23.31;24.73;101368.16;4953404;28;20036;-84
2022/04/12 06:05:29;;;;;;;12.20;6.80;;;;;;;24.38;23.40;101355.78;4931921;29;20987;-85
2022/04/12 06:07:56;;;;;;;20.98;7.93;;;;;;;24.20;22.98;101363.00;4934055;29;20047;-85
2022/04/12 06:10:23;;;;;;;17.75;8.32;;;;;;;25.35;22.35;101355.34;4901198;29;20046;-83
2022/04/12 06:12:54;;;;;;;12.30;7.45;;;;;;;25.54;21.65;101367.00;4931480;29;20054;-84
2022/04/12 06:15:20;;;;;;;15.13;9.20;;;;;;;25.35;22.09;101354.50;4946044;29;20560;-85
2022/04/12 06:17:48;;;;;;;16.40;7.85;;;;;;;25.14;22.51;101347.69;4913773;29;20059;-87
2022/04/12 06:20:17;;;;;;;12.73;7.60;;;;;;;25.75;21.36;101362.75;4923532;29;20035;-86
2022/04/12 06:22:44;;;;;;;19.20;9.93;;;;;;;25.23;21.72;101355.38;4924536;29;20031;-85
2022/04/12 06:25:21;;;;;;;17.23;8.02;;;;;;;24.82;22.73;101351.66;4949334;29;20500;-85
2022/04/12 06:27:51;;;;;;;13.90;7.90;;;;;;;24.90;22.57;101358.72;4946677;29;20031;-86
2022/04/12 06:30:26;;;;;;;22.20;8.80;;;;;;;26.00;21.34;101359.69;4940696;29;20051;-89
2022/04/12 06:32:53;;;;;;;20.05;8.32;;;;;;;25.92;20.96;101360.13;4959761;29;20038;-86
2022/04/12 06:35:18;;;;;;;18.77;7.68;;;;;;;26.40;20.64;101358.75;4946232;29;20415;-84
2022/04/12 06:37:46;;;;;;;15.13;7.35;;;;;;;26.87;20.46;101354.84;4926876;29;20035;-88
2022/04/12 06:40:36;;;;;;;13.13;7.22;;;;;;;27.46;19.66;101360.63;4926741;29;20058;-84
2022/04/12 06:43:03;;;;;;;11.02;5.57;;;;;;;28.73;18.37;101357.56;4953178;29;20070;-84
2022/04/12 06:45:30;;;;;;;13.68;6.70;;;;;;;29.08;17.63;101356.16;4927436;29;20055;-82
2022/04/12 06:47:58;;;;;;;18.35;6.82;;;;;;;27.88;18.93;101357.28;4939714;29;20488;-86
2022/04/12 06:50:26;;;;;;;10.88;7.47;;;;;;;28.20;18.77;101334.41;4920748;29;20436;-86
2022/04/12 06:52:52;;;;;;;16.02;6.97;;;;;;;29.49;17.25;101353.56;4934728;29;20115;-85
2022/04/12 06:55:18;;;;;;;10.00;7.20;;;;;;;29.70;16.80;101340.63;4923585;29;20031;-83
2022/04/12 06:57:43;;;;;;;18.48;6.88;;;;;;;30.08;16.83;101344.03;4940500;29;20031;-86
2022/04/12 07:00:17;;;;;;;12.43;6.00;;;;;;;28.71;17.68;101353.38;4926027;29;20475;-84
2022/04/12 07:02:46;;;;;;;14.43;6.85;;;;;;;27.84;18.53;101353.41;4963778;29;20129;-84
2022/04/12 07:05:14;;;;;;;12.60;6.47;;;;;;;27.24;19.01;101348.78;4935764;29;20038;-85
2022/04/12 07:07:42;;;;;;;9.40;6.00;;;;;;;26.53;20.21;101366.69;4946195;29;20042;-82
2022/04/12 07:10:15;;;;;;;9.57;6.47;;;;;;;27.83;18.38;101346.19;4959396;28;20743;-83
2022/04/12 07:12:46;;;;;;;14.18;7.22;;;;;;;27.39;19.02;101345.38;4942073;29;20047;-84
2022/04/12 07:15:13;;;;;;;11.73;6.30;;;;;;;27.88;17.73;101343.47;4953033;29;20047;-84
2022/04/12 07:17:41;;;;;;;8.25;5.60;;;;;;;25.79;19.70;101344.66;4956931;28;20063;-84
2022/04/12 07:20:12;;;;;;;9.48;5.90;;;;;;;26.16;19.08;101366.34;4917860;29;20063;-86
2022/04/12 07:22:39;;;;;;;13.00;5.82;;;;;;;26.86;18.78;101347.66;4921908;29;20046;-86
2022/04/12 07:25:09;;;;;;;9.60;5.72;;;;;;;24.69;20.85;101345.56;4936204;29;20027;-84
2022/04/12 07:27:41;;;;;;;11.75;6.25;;;;;;;25.31;20.56;101354.19;4942588;29;20038;-89
2022/04/12 07:30:10;;;;;;;11.82;6.18;;;;;;;22.23;23.92;101346.59;4918439;29;20118;-86
2022/04/12 07:32:39;;;;;;;11.00;6.63;;;;;;;19.15;27.71;101366.81;4925235;28;20047;-87
2022/04/12 07:35:14;;;;;;;17.80;8.85;;;;;;;20.64;26.31;101363.28;4937475;29;20042;-85
2022/04/12 07:37:43;;;;;;;18.33;8.75;;;;;;;20.99;25.57;101348.56;4929188;29;20481;-85
2022/04/12 07:40:09;;;;;;;9.85;7.20;;;;;;;19.74;26.45;101364.59;4900811;29;20094;-84
2022/04/12 07:42:35;;;;;;;7.32;5.88;;;;;;;18.61;28.40;101358.41;4924720;28;20114;-87
2022/04/12 07:45:01;;;;;;;;;;;;;;;20.11;26.49;101351.47;4920506;29;20050;-86
2022/04/12 07:47:29;;;;;;;9.02;6.25;;;;;;;21.47;24.59;101351.00;4948694;29;19999;-85
2022/04/12 07:49:56;;;;;;;13.55;5.38;;;;;;;21.89;23.66;101352.25;4936017;29;20039;-84
2022/04/12 07:52:27;;;;;;;9.25;5.70;;;;;;;23.08;22.46;101352.38;4928202;29;20046;-85
2022/04/12 07:54:53;;;;;;;11.73;6.47;;;;;;;20.81;24.13;101333.69;4956301;28;20035;-85
2022/04/12 07:57:19;;;;;;;11.98;5.50;;;;;;;23.02;22.31;101339.59;4936499;29;20087;-85
2022/04/12 07:59:44;;;;;;;16.58;5.72;;;;;;;23.11;21.81;101346.47;4956993;29;20118;-87
2022/04/12 08:02:21;;;;;;;14.07;5.82;;;;;;;23.09;20.69;101337.63;4926590;29;20054;-83
2022/04/12 08:04:48;;;;;;;7.95;5.43;;;;;;;21.96;21.55;101334.94;4934694;29;20059;-85
2022/04/12 08:07:15;;;;;;;10.88;5.22;;;;;;;20.61;23.78;101330.94;4935603;29;20051;-87
2022/04/12 08:09:43;;;;;;;8.43;5.20;;;;;;;20.20;24.59;101350.22;4931438;29;20027;-86
2022/04/12 08:12:09;;;;;;;14.82;5.68;;;;;;;20.02;24.86;101359.84;4931879;29;20459;-85
2022/04/12 08:14:37;;;;;;;17.73;5.95;;;;;;;19.12;25.43;101344.56;4913457;29;20091;-85
2022/04/12 08:17:03;;;;;;;9.98;6.15;;;;;;;17.96;26.47;101346.69;4933547;29;20051;-85
2022/04/12 08:19:33;;;;;;;10.25;5.43;;;;;;;17.65;27.07;101337.78;4913384;29;20445;-83
2022/04/12 08:22:02;;;;;;;9.20;4.90;;;;;;;17.82;26.57;101346.56;4919745;29;20129;-86
2022/04/12 08:24:28;;;;;;;8.82;5.05;;;;;;;17.75;27.02;101337.47;4913741;29;20070;-85
2022/04/12 08:26:55;;;;;;;9.73;4.50;;;;;;;16.51;28.12;101326.31;4913386;29;20063;-86
2022/04/12 08:29:29;;;;;;;7.88;4.90;;;;;;;15.95;29.32;101331.16;4902516;29;20831;-85
2022/04/12 08:31:56;;;;;;;8.73;4.43;;;;;;;16.28;29.65;101341.78;4948604;29;20460;-83
2022/04/12 08:34:32;;;;;;;7.10;4.75;;;;;;;16.16;29.59;101328.63;4929004;29;20091;-85
2022/04/12 08:37:16;;;;;;;15.32;5.10;;;;;;;16.04;30.17;101324.66;4929734;29;20047;-86
2022/04/12 08:39:45;;;;;;;8.70;4.95;;;;;;;16.73;29.54;101330.00;4943164;29;20106;-86
2022/04/12 08:42:11;;;;;;;9.30;4.85;;;;;;;17.22;27.63;101328.66;4923690;29;20046;-87
2022/04/12 08:44:40;;;;;;;6.13;3.40;;;;;;;18.41;23.18;101340.03;4899379;29;20122;-86
2022/04/12 08:47:18;;;;;;;;;;;;;;;;;;;;;
2022/04/12 08:49:47;;;;;;;7.75;3.40;;;;;;;18.53;23.02;101299.50;4928229;29;20035;-87
2022/04/12 08:52:15;;;;;;;4.38;3.00;;;;;;;20.53;20.25;101333.84;4926020;29;20575;-85
2022/04/12 08:54:44;;;;;;;6.35;3.50;;;;;;;21.14;20.88;101324.56;4933558;29;20030;-84
2022/04/12 08:57:10;;;;;;;23.40;10.30;;;;;;;21.90;23.38;101312.84;4925420;29;20032;-87
2022/04/12 08:59:37;;;;;;;12.77;6.85;;;;;;;23.78;21.34;101330.03;4901216;29;20039;-84
2022/04/12 09:02:07;;;;;;;7.57;3.92;;;;;;;23.73;18.30;101332.59;4947761;29;20129;-85
2022/04/12 09:04:34;;;;;;;5.93;2.90;;;;;;;21.28;18.87;101312.53;4926676;29;20421;-85
2022/04/12 09:07:16;;;;;;;6.32;2.63;;;;;;;19.01;20.68;101324.19;4907930;29;20042;-85
2022/04/12 09:09:46;;;;;;;10.85;3.45;;;;;;;21.26;18.90;101311.06;4935169;29;20047;-86
2022/04/12 09:12:18;;;;;;;11.32;3.30;;;;;;;23.09;17.76;101323.09;4947858;29;20122;-83
2022/04/12 09:14:57;;;;;;;4.70;2.80;;;;;;;24.19;16.66;101316.56;4945855;29;20057;-85
2022/04/12 09:17:35;;;;;;;5.88;3.42;;;;;;;25.50;15.82;101313.56;4950895;28;20043;-87
2022/04/12 09:20:19;;;;;;;7.50;3.90;;;;;;;27.37;14.34;101301.47;4922731;29;20043;-84
2022/04/12 09:22:48;;;;;;;7.55;2.88;;;;;;;26.93;14.52;101298.66;4930337;29;20039;-83
2022/04/12 09:25:19;;;;;;;8.30;3.30;;;;;;;26.47;14.54;101284.97;4924304;29;20031;-89
2022/04/12 09:27:49;;;;;;;5.38;3.25;;;;;;;24.77;15.72;101292.97;4942608;28;20039;-84
2022/04/12 09:30:16;;;;;;;6.28;2.80;;;;;;;23.71;16.85;101290.81;4922975;29;20059;-83
2022/04/12 09:32:46;;;;;;;5.53;2.83;;;;;;;21.73;18.17;101303.50;4925879;29;20058;-84
2022/04/12 09:35:13;;;;;;;10.10;3.00;;;;;;;20.10;20.14;101284.28;4916631;29;20087;-83
2022/04/12 09:37:43;;;;;;;6.60;2.60;;;;;;;18.80;21.18;101306.03;4929895;29;20082;-84
2022/04/12 09:40:19;;;;;;;6.68;2.60;;;;;;;17.66;22.38;101314.97;4917547;29;20032;-83
2022/04/12 09:42:57;;;;;;;17.73;3.58;;;;;;;17.30;23.72;101320.38;4936828;29;20039;-84
2022/04/12 09:45:38;;;;;;;6.55;2.85;;;;;;;16.16;24.69;101312.34;4920448;29;20412;-84
2022/04/12 09:48:08;;;;;;;7.32;3.03;;;;;;;15.98;25.18;101314.53;4921318;29;20031;-84
2022/04/12 09:50:35;;;;;;;7.07;3.40;;;;;;;15.56;26.32;101319.31;4954042;28;20031;-85
2022/04/12 09:53:04;;;;;;;7.82;3.50;;;;;;;15.33;26.58;101330.09;4943125;29;20058;-86
2022/04/12 09:55:44;;;;;;;4.22;2.80;;;;;;;14.66;27.07;101308.00;4931151;29;20047;-85
2022/04/12 09:58:18;;;;;;;7.93;2.80;;;;;;;14.12;28.18;101314.75;4947102;29;20040;-85
2022/04/12 10:00:50;;;;;;;4.35;2.70;;;;;;;14.00;28.31;101316.09;4931749;28;20043;-84
2022/04/12 10:03:19;;;;;;;5.95;2.85;;;;;;;13.89;29.56;101332.63;4934340;29;20118;-86
2022/04/12 10:05:45;;;;;;;6.68;3.17;;;;;;;13.34;31.27;101322.34;4921446;29;20036;-84
2022/04/12 10:08:13;;;;;;;8.90;3.63;;;;;;;13.06;32.72;101322.50;4920688;29;20063;-84
2022/04/12 10:10:50;;;;;;;7.30;3.05;;;;;;;13.41;31.14;101328.78;4919312;29;20482;-87
2022/04/12 10:13:17;;;;;;;10.60;4.75;;;;;;;13.25;31.98;101319.59;4933383;29;20451;-84
2022/04/12 10:15:43;;;;;;;9.15;3.90;;;;;;;12.85;33.48;101318.38;4918652;29;20050;-86
2022/04/12 10:18:09;;;;;;;6.53;4.00;;;;;;;12.49;34.40;101322.19;4934807;28;20044;-83
2022/04/12 10:20:35;;;;;;;6.68;4.07;;;;;;;12.29;34.70;101306.19;4912187;29;20094;-86
2022/04/12 10:23:00;;;;;;;9.57;4.78;;;;;;;12.34;35.34;101328.13;4911960;29;20109;-84
2022/04/12 10:25:26;;;;;;;7.45;4.00;;;;;;;12.31;35.20;101306.84;4916986;29;20061;-83
2022/04/12 10:27:58;;;;;;;12.77;5.70;;;;;;;12.22;35.40;101299.69;4924021;29;20082;-84
2022/04/12 10:30:31;;;;;;;10.88;5.80;;;;;;;12.23;34.59;101322.97;4931707;29;20039;-85
2022/04/12 10:33:06;;;;;;;8.65;3.83;;;;;;;11.87;35.34;101339.16;4915774;29;20118;-86
2022/04/12 10:35:47;;;;;;;6.57;3.03;;;;;;;11.34;39.71;101358.72;4921738;29;20035;-86
2022/04/12 10:38:15;;;;;;;6.93;3.53;;;;;;;10.96;43.35;101353.34;4949763;29;20035;-84
2022/04/12 10:40:48;;;;;;;10.40;4.50;;;;;;;10.33;47.51;101336.91;4908764;29;20061;-82
2022/04/12 10:43:33;;;;;;;8.43;5.18;;;;;;;10.55;51.16;101358.09;4923017;29;20500;-88
2022/04/12 10:46:03;;;;;;;8.82;4.57;;;;;;;10.68;49.75;101347.03;4905482;29;20048;-85
2022/04/12 10:48:33;;;;;;;9.40;5.00;;;;;;;11.11;47.77;101332.19;4931328;29;20027;-85
2022/04/12 10:51:00;;;;;;;7.70;4.50;;;;;;;11.82;47.24;101344.97;4907087;29;20047;-86
2022/04/12 10:53:38;;;;;;;7.30;5.00;;;;;;;11.89;42.94;101334.44;4905367;29;20492;-87
2022/04/12 10:56:16;;;;;;;7.80;5.00;;;;;;;12.19;42.24;101332.38;4939867;29;20035;-87
2022/04/12 10:58:43;;;;;;;6.82;4.70;;;;;;;12.37;42.79;101317.03;4938000;29;20057;-87
2022/04/12 11:01:30;;;;;;;5.93;4.40;;;;;;;12.10;42.16;101327.91;4921046;29;20048;-89
2022/04/12 11:04:09;;;;;;;7.03;4.60;;;;;;;12.37;43.10;101330.50;4950783;29;20046;-88
2022/04/12 11:06:38;;;;;;;5.97;3.97;;;;;;;12.24;39.06;101320.13;4923855;28;20493;-89
2022/04/12 11:09:11;;;;;;;6.75;4.80;;;;;;;12.26;41.70;101341.53;4921426;29;20051;-86
2022/04/12 11:11:45;;;;;;;6.68;4.03;;;;;;;11.64;41.21;101365.66;4904855;29;20031;-87
2022/04/12 11:14:38;;;;;;;6.95;4.00;;;;;;;11.33;42.74;101370.47;4932962;29;20041;-89
2022/04/12 11:17:26;;;;;;;5.10;2.97;;;;;;;10.91;43.98;101384.34;4937948;29;20047;-88
2022/04/12 11:19:54;;;;;;;5.57;3.00;;;;;;;10.48;46.11;101367.72;4924587;29;20095;-90
2022/04/12 11:22:25;;;;;;;4.18;2.40;;;;;;;10.52;44.48;101363.75;4903890;29;20062;-88
2022/04/12 11:25:13;;;;;;;7.88;3.38;;;;;;;10.68;48.03;101373.94;4913343;29;20035;-89
2022/04/12 11:28:06;;;;;;;5.55;3.72;;;;;;;10.68;48.70;101351.59;4937603;29;20054;-90
2022/04/12 11:30:35;;;;;;;6.93;3.60;;;;;;;11.03;47.58;101356.31;4939862;29;20134;-86
2022/04/12 11:33:10;;;;;;;7.50;4.47;;;;;;;11.16;49.03;101334.41;4925989;29;20046;-88
2022/04/12 11:35:38;;;;;;;11.13;4.78;;;;;;;10.81;50.00;101311.75;4916582;28;20031;-85